sensor_id;sensor_type;location;lat;lon;timestamp;pressure;altitude;pressure_sealevel;temperature;humidity
47274;BME280;33007;49.082;19.306;2022-08-19T00:01:07;95796.78;;;19.05;91.24
47274;BME280;33007;49.082;19.306;2022-08-19T00:03:33;95786.44;;;19.11;90.07
47274;BME280;33007;49.082;19.306;2022-08-19T00:05:59;95810.34;;;19.16;89.88
47274;BME280;33007;49.082;19.306;2022-08-19T00:08:24;95787.03;;;18.91;89.91
47274;BME280;33007;49.082;19.306;2022-08-19T00:10:49;95796.25;;;18.93;90.38
47274;BME280;33007;49.082;19.306;2022-08-19T00:13:15;95818.16;;;18.99;90.33
47274;BME280;33007;49.082;19.306;2022-08-19T00:15:40;95773.00;;;18.62;91.47
47274;BME280;33007;49.082;19.306;2022-08-19T00:18:06;95768.06;;;18.74;91.53
47274;BME280;33007;49.082;19.306;2022-08-19T00:20:32;95806.09;;;18.89;91.33
47274;BME280;33007;49.082;19.306;2022-08-19T00:22:57;95790.75;;;18.93;91.87
47274;BME280;33007;49.082;19.306;2022-08-19T00:25:23;95789.28;;;18.92;89.33
47274;BME280;33007;49.082;19.306;2022-08-19T00:27:48;95823.78;;;19.06;90.53
47274;BME280;33007;49.082;19.306;2022-08-19T00:30:14;95776.56;;;18.76;90.50
47274;BME280;33007;49.082;19.306;2022-08-19T00:32:40;95772.69;;;18.66;91.24
47274;BME280;33007;49.082;19.306;2022-08-19T00:35:06;95800.97;;;18.79;92.06
47274;BME280;33007;49.082;19.306;2022-08-19T00:37:32;95808.75;;;18.94;92.11
47274;BME280;33007;49.082;19.306;2022-08-19T00:39:58;95795.72;;;18.81;91.43
47274;BME280;33007;49.082;19.306;2022-08-19T00:42:23;95782.06;;;18.57;91.76
47274;BME280;33007;49.082;19.306;2022-08-19T00:44:53;95819.28;;;18.77;92.03
47274;BME280;33007;49.082;19.306;2022-08-19T00:47:19;95783.78;;;18.60;92.40
47274;BME280;33007;49.082;19.306;2022-08-19T00:49:48;95823.97;;;18.95;92.39
47274;BME280;33007;49.082;19.306;2022-08-19T00:52:37;95816.66;;;18.84;91.59
47274;BME280;33007;49.082;19.306;2022-08-19T00:55:07;95772.97;;;18.49;92.49
47274;BME280;33007;49.082;19.306;2022-08-19T00:57:39;95798.56;;;18.57;93.12
47274;BME280;33007;49.082;19.306;2022-08-19T01:00:12;95811.13;;;18.71;93.50
47274;BME280;33007;49.082;19.306;2022-08-19T01:02:39;95812.22;;;18.63;94.21
47274;BME280;33007;49.082;19.306;2022-08-19T01:05:08;95776.56;;;18.25;93.65
47274;BME280;33007;49.082;19.306;2022-08-19T01:07:37;95778.28;;;18.28;95.24
47274;BME280;33007;49.082;19.306;2022-08-19T01:10:06;95774.19;;;18.16;94.31
47274;BME280;33007;49.082;19.306;2022-08-19T01:12:32;95793.63;;;18.37;94.27
47274;BME280;33007;49.082;19.306;2022-08-19T01:14:58;95758.03;;;17.93;94.66
47274;BME280;33007;49.082;19.306;2022-08-19T01:17:24;95817.47;;;18.47;95.65
47274;BME280;33007;49.082;19.306;2022-08-19T01:19:50;95788.84;;;18.24;95.00
47274;BME280;33007;49.082;19.306;2022-08-19T01:24:45;95726.06;;;17.77;94.57
47274;BME280;33007;49.082;19.306;2022-08-19T01:27:10;95786.00;;;18.11;94.87
47274;BME280;33007;49.082;19.306;2022-08-19T01:29:39;95788.66;;;18.35;94.26
47274;BME280;33007;49.082;19.306;2022-08-19T01:32:07;95758.50;;;17.97;94.86
47274;BME280;33007;49.082;19.306;2022-08-19T01:34:32;95756.47;;;17.98;94.24
47274;BME280;33007;49.082;19.306;2022-08-19T01:37:00;95750.25;;;17.97;94.85
47274;BME280;33007;49.082;19.306;2022-08-19T01:39:27;95800.84;;;18.40;94.75
47274;BME280;33007;49.082;19.306;2022-08-19T01:41:53;95801.56;;;18.40;94.42
47274;BME280;33007;49.082;19.306;2022-08-19T01:44:21;95779.94;;;18.18;94.53
47274;BME280;33007;49.082;19.306;2022-08-19T01:46:50;95782.53;;;18.10;95.89
47274;BME280;33007;49.082;19.306;2022-08-19T01:49:19;95776.06;;;18.08;96.09
47274;BME280;33007;49.082;19.306;2022-08-19T01:51:45;95775.56;;;17.90;96.28
47274;BME280;33007;49.082;19.306;2022-08-19T01:54:12;95755.31;;;17.74;97.43
47274;BME280;33007;49.082;19.306;2022-08-19T01:56:38;95763.84;;;17.90;96.00
47274;BME280;33007;49.082;19.306;2022-08-19T01:59:09;95749.28;;;17.76;96.76
47274;BME280;33007;49.082;19.306;2022-08-19T02:01:35;95753.56;;;17.71;97.18
47274;BME280;33007;49.082;19.306;2022-08-19T02:04:01;95771.59;;;17.67;97.81
47274;BME280;33007;49.082;19.306;2022-08-19T02:06:28;95777.41;;;17.82;97.58
47274;BME280;33007;49.082;19.306;2022-08-19T02:08:53;95782.53;;;17.72;97.27
47274;BME280;33007;49.082;19.306;2022-08-19T02:11:26;95751.56;;;17.72;97.26
47274;BME280;33007;49.082;19.306;2022-08-19T02:13:53;95810.69;;;17.97;96.94
47274;BME280;33007;49.082;19.306;2022-08-19T02:16:19;95782.53;;;17.72;97.91
47274;BME280;33007;49.082;19.306;2022-08-19T02:18:46;95801.78;;;17.91;98.63
47274;BME280;33007;49.082;19.306;2022-08-19T02:21:14;95802.81;;;17.88;98.30
47274;BME280;33007;49.082;19.306;2022-08-19T02:23:41;95780.44;;;17.78;97.90
47274;BME280;33007;49.082;19.306;2022-08-19T02:26:07;95737.84;;;17.53;98.62
47274;BME280;33007;49.082;19.306;2022-08-19T02:28:32;95754.25;;;17.59;98.36
47274;BME280;33007;49.082;19.306;2022-08-19T02:30:59;95752.22;;;17.59;97.75
47274;BME280;33007;49.082;19.306;2022-08-19T02:33:26;95768.81;;;17.72;97.67
47274;BME280;33007;49.082;19.306;2022-08-19T02:35:52;95774.16;;;17.84;97.67
47274;BME280;33007;49.082;19.306;2022-08-19T02:38:17;95763.06;;;17.70;97.81
47274;BME280;33007;49.082;19.306;2022-08-19T02:41:00;95801.69;;;17.97;97.51
47274;BME280;33007;49.082;19.306;2022-08-19T02:43:28;95759.00;;;17.77;97.00
47274;BME280;33007;49.082;19.306;2022-08-19T02:45:54;95753.75;;;17.79;97.21
47274;BME280;33007;49.082;19.306;2022-08-19T02:48:21;95805.69;;;18.15;97.41
47274;BME280;33007;49.082;19.306;2022-08-19T02:50:48;95770.66;;;17.83;97.61
47274;BME280;33007;49.082;19.306;2022-08-19T02:53:18;95729.22;;;17.62;97.75
47274;BME280;33007;49.082;19.306;2022-08-19T02:55:45;95803.25;;;18.11;97.14
47274;BME280;33007;49.082;19.306;2022-08-19T02:58:12;95773.78;;;17.74;96.33
47274;BME280;33007;49.082;19.306;2022-08-19T03:00:44;95795.91;;;17.82;97.39
47274;BME280;33007;49.082;19.306;2022-08-19T03:03:10;95752.59;;;17.50;97.86
47274;BME280;33007;49.082;19.306;2022-08-19T03:05:35;95699.28;;;17.02;98.74
47274;BME280;33007;49.082;19.306;2022-08-19T03:08:04;95802.00;;;17.74;97.38
47274;BME280;33007;49.082;19.306;2022-08-19T03:10:32;95735.03;;;17.15;98.06
47274;BME280;33007;49.082;19.306;2022-08-19T03:12:57;95783.38;;;17.43;98.94
47274;BME280;33007;49.082;19.306;2022-08-19T03:15:23;95783.75;;;17.52;98.64
47274;BME280;33007;49.082;19.306;2022-08-19T03:17:48;95767.34;;;17.47;99.24
47274;BME280;33007;49.082;19.306;2022-08-19T03:20:14;95745.19;;;17.20;98.37
47274;BME280;33007;49.082;19.306;2022-08-19T03:22:39;95699.47;;;16.85;98.61
47274;BME280;33007;49.082;19.306;2022-08-19T03:25:05;95716.44;;;16.84;99.76
47274;BME280;33007;49.082;19.306;2022-08-19T03:27:30;95740.88;;;16.82;100.00
47274;BME280;33007;49.082;19.306;2022-08-19T03:29:56;95730.34;;;16.86;99.97
47274;BME280;33007;49.082;19.306;2022-08-19T03:32:21;95807.69;;;17.52;100.00
47274;BME280;33007;49.082;19.306;2022-08-19T03:34:48;95799.31;;;17.44;100.00
47274;BME280;33007;49.082;19.306;2022-08-19T03:37:14;95755.91;;;16.99;100.00
47274;BME280;33007;49.082;19.306;2022-08-19T03:39:41;95763.94;;;16.92;100.00
47274;BME280;33007;49.082;19.306;2022-08-19T03:42:07;95836.94;;;17.25;100.00
47274;BME280;33007;49.082;19.306;2022-08-19T03:44:33;95768.16;;;16.93;100.00
47274;BME280;33007;49.082;19.306;2022-08-19T03:47:02;95822.00;;;17.45;100.00
47274;BME280;33007;49.082;19.306;2022-08-19T03:49:30;95818.19;;;17.53;100.00
47274;BME280;33007;49.082;19.306;2022-08-19T03:51:57;95716.72;;;16.80;100.00
47274;BME280;33007;49.082;19.306;2022-08-19T03:54:24;95767.31;;;17.03;100.00
47274;BME280;33007;49.082;19.306;2022-08-19T03:56:52;95835.13;;;17.33;100.00
47274;BME280;33007;49.082;19.306;2022-08-19T03:59:25;95796.63;;;17.14;100.00
47274;BME280;33007;49.082;19.306;2022-08-19T04:01:56;95856.94;;;17.44;100.00
47274;BME280;33007;49.082;19.306;2022-08-19T04:04:23;95818.59;;;17.14;100.00
47274;BME280;33007;49.082;19.306;2022-08-19T04:06:49;95821.56;;;17.16;100.00
47274;BME280;33007;49.082;19.306;2022-08-19T04:09:15;95800.13;;;17.15;100.00
47274;BME280;33007;49.082;19.306;2022-08-19T04:11:45;95836.34;;;17.57;100.00
47274;BME280;33007;49.082;19.306;2022-08-19T04:14:12;95840.44;;;17.50;100.00
47274;BME280;33007;49.082;19.306;2022-08-19T04:16:37;95786.25;;;17.07;100.00
47274;BME280;33007;49.082;19.306;2022-08-19T04:19:05;95853.19;;;17.47;100.00
47274;BME280;33007;49.082;19.306;2022-08-19T04:21:30;95811.91;;;17.34;100.00
47274;BME280;33007;49.082;19.306;2022-08-19T04:23:57;95791.16;;;17.14;100.00
47274;BME280;33007;49.082;19.306;2022-08-19T04:26:26;95854.66;;;17.48;100.00
47274;BME280;33007;49.082;19.306;2022-08-19T04:28:52;95831.97;;;17.48;100.00
47274;BME280;33007;49.082;19.306;2022-08-19T04:31:24;95817.16;;;17.32;100.00
47274;BME280;33007;49.082;19.306;2022-08-19T04:33:53;95788.75;;;17.29;100.00
47274;BME280;33007;49.082;19.306;2022-08-19T04:36:40;95843.72;;;17.67;100.00
47274;BME280;33007;49.082;19.306;2022-08-19T04:39:13;95838.97;;;17.68;100.00
47274;BME280;33007;49.082;19.306;2022-08-19T04:41:39;95797.09;;;17.43;100.00
47274;BME280;33007;49.082;19.306;2022-08-19T04:44:23;95818.41;;;17.55;100.00
47274;BME280;33007;49.082;19.306;2022-08-19T04:46:50;95815.53;;;17.67;100.00
47274;BME280;33007;49.082;19.306;2022-08-19T04:49:18;95848.28;;;17.84;100.00
47274;BME280;33007;49.082;19.306;2022-08-19T04:51:46;95846.28;;;17.84;100.00
47274;BME280;33007;49.082;19.306;2022-08-19T04:54:13;95806.91;;;17.57;100.00
47274;BME280;33007;49.082;19.306;2022-08-19T04:56:40;95832.56;;;17.84;100.00
47274;BME280;33007;49.082;19.306;2022-08-19T04:59:06;95853.38;;;17.98;100.00
47274;BME280;33007;49.082;19.306;2022-08-19T05:01:34;95842.66;;;17.95;100.00
47274;BME280;33007;49.082;19.306;2022-08-19T05:04:03;95841.03;;;18.05;100.00
47274;BME280;33007;49.082;19.306;2022-08-19T05:06:31;95838.91;;;18.17;100.00
47274;BME280;33007;49.082;19.306;2022-08-19T05:09:00;95777.94;;;17.80;100.00
47274;BME280;33007;49.082;19.306;2022-08-19T05:11:28;95849.56;;;18.39;98.29
47274;BME280;33007;49.082;19.306;2022-08-19T05:13:55;95778.91;;;17.83;100.00
47274;BME280;33007;49.082;19.306;2022-08-19T05:16:23;95806.50;;;18.10;98.75
47274;BME280;33007;49.082;19.306;2022-08-19T05:18:49;95860.50;;;18.45;98.95
47274;BME280;33007;49.082;19.306;2022-08-19T05:21:34;95812.59;;;18.21;99.80
47274;BME280;33007;49.082;19.306;2022-08-19T05:24:19;95847.63;;;18.53;99.64
47274;BME280;33007;49.082;19.306;2022-08-19T05:26:47;95796.25;;;18.29;99.21
47274;BME280;33007;49.082;19.306;2022-08-19T05:29:15;95847.41;;;18.70;100.00
47274;BME280;33007;49.082;19.306;2022-08-19T05:31:41;95790.38;;;18.38;98.82
47274;BME280;33007;49.082;19.306;2022-08-19T05:34:07;95848.47;;;18.80;97.18
47274;BME280;33007;49.082;19.306;2022-08-19T05:36:38;95867.25;;;18.95;96.92
47274;BME280;33007;49.082;19.306;2022-08-19T05:39:08;95869.59;;;19.04;97.73
47274;BME280;33007;49.082;19.306;2022-08-19T05:41:34;95821.41;;;18.84;95.67
47274;BME280;33007;49.082;19.306;2022-08-19T05:44:04;95868.16;;;19.16;96.16
47274;BME280;33007;49.082;19.306;2022-08-19T05:46:38;95813.06;;;18.90;95.31
47274;BME280;33007;49.082;19.306;2022-08-19T05:49:08;95782.06;;;18.76;94.31
47274;BME280;33007;49.082;19.306;2022-08-19T05:51:35;95850.69;;;19.27;93.98
47274;BME280;33007;49.082;19.306;2022-08-19T05:54:04;95864.50;;;19.40;93.58
47274;BME280;33007;49.082;19.306;2022-08-19T05:56:30;95826.13;;;19.16;92.80
47274;BME280;33007;49.082;19.306;2022-08-19T05:58:57;95820.31;;;19.19;93.02
47274;BME280;33007;49.082;19.306;2022-08-19T06:01:25;95787.38;;;19.00;92.30
47274;BME280;33007;49.082;19.306;2022-08-19T06:03:50;95819.25;;;19.22;92.24
47274;BME280;33007;49.082;19.306;2022-08-19T06:06:16;95791.41;;;19.13;92.22
47274;BME280;33007;49.082;19.306;2022-08-19T06:08:45;95809.63;;;19.29;92.61
47274;BME280;33007;49.082;19.306;2022-08-19T06:11:21;95882.31;;;19.79;91.65
47274;BME280;33007;49.082;19.306;2022-08-19T06:13:49;95889.72;;;19.84;91.28
47274;BME280;33007;49.082;19.306;2022-08-19T06:16:18;95859.84;;;19.75;90.64
47274;BME280;33007;49.082;19.306;2022-08-19T06:18:54;95885.25;;;20.07;90.59
47274;BME280;33007;49.082;19.306;2022-08-19T06:21:23;95892.16;;;20.14;89.46
47274;BME280;33007;49.082;19.306;2022-08-19T06:23:50;95885.34;;;20.15;89.96
47274;BME280;33007;49.082;19.306;2022-08-19T06:26:18;95849.47;;;19.94;90.00
47274;BME280;33007;49.082;19.306;2022-08-19T06:28:44;95857.91;;;20.09;89.55
47274;BME280;33007;49.082;19.306;2022-08-19T06:31:21;95856.81;;;20.26;89.13
47274;BME280;33007;49.082;19.306;2022-08-19T06:33:47;95841.88;;;20.21;88.88
47274;BME280;33007;49.082;19.306;2022-08-19T06:36:26;95866.19;;;20.44;88.43
47274;BME280;33007;49.082;19.306;2022-08-19T06:38:55;95823.31;;;20.22;88.20
47274;BME280;33007;49.082;19.306;2022-08-19T06:41:26;95834.84;;;20.33;87.03
47274;BME280;33007;49.082;19.306;2022-08-19T06:43:53;95871.78;;;20.64;86.95
47274;BME280;33007;49.082;19.306;2022-08-19T06:46:19;95879.59;;;20.74;86.29
47274;BME280;33007;49.082;19.306;2022-08-19T06:48:45;95822.06;;;20.44;86.14
47274;BME280;33007;49.082;19.306;2022-08-19T06:51:12;95813.25;;;20.45;85.79
47274;BME280;33007;49.082;19.306;2022-08-19T06:53:41;95844.34;;;20.80;85.39
47274;BME280;33007;49.082;19.306;2022-08-19T06:56:06;95852.88;;;20.89;84.14
47274;BME280;33007;49.082;19.306;2022-08-19T06:58:32;95790.75;;;20.54;82.74
47274;BME280;33007;49.082;19.306;2022-08-19T07:01:07;95863.41;;;21.19;83.04
47274;BME280;33007;49.082;19.306;2022-08-19T07:03:35;95832.19;;;21.04;83.25
47274;BME280;33007;49.082;19.306;2022-08-19T07:06:06;95822.31;;;21.08;83.20
47274;BME280;33007;49.082;19.306;2022-08-19T07:08:33;95875.88;;;21.55;83.39
47274;BME280;33007;49.082;19.306;2022-08-19T07:11:05;95855.19;;;21.48;83.13
47274;BME280;33007;49.082;19.306;2022-08-19T07:13:32;95790.88;;;21.11;83.08
47274;BME280;33007;49.082;19.306;2022-08-19T07:16:03;95856.97;;;21.66;83.30
47274;BME280;33007;49.082;19.306;2022-08-19T07:18:29;95866.78;;;21.75;83.91
47274;BME280;33007;49.082;19.306;2022-08-19T07:21:06;95872.56;;;21.85;83.24
47274;BME280;33007;49.082;19.306;2022-08-19T07:23:33;95824.69;;;21.61;83.84
47274;BME280;33007;49.082;19.306;2022-08-19T07:26:12;95886.16;;;22.11;81.52
47274;BME280;33007;49.082;19.306;2022-08-19T07:28:38;95840.13;;;21.85;81.96
47274;BME280;33007;49.082;19.306;2022-08-19T07:31:07;95843.88;;;21.95;81.60
47274;BME280;33007;49.082;19.306;2022-08-19T07:33:34;95864.06;;;22.19;82.16
47274;BME280;33007;49.082;19.306;2022-08-19T07:36:01;95786.25;;;21.71;81.44
47274;BME280;33007;49.082;19.306;2022-08-19T07:38:51;95883.50;;;22.42;81.24
47274;BME280;33007;49.082;19.306;2022-08-19T07:41:20;95883.53;;;22.49;81.33
47274;BME280;33007;49.082;19.306;2022-08-19T07:43:47;95843.81;;;22.24;80.38
47274;BME280;33007;49.082;19.306;2022-08-19T07:46:13;95850.28;;;22.34;81.12
47274;BME280;33007;49.082;19.306;2022-08-19T07:48:41;95880.25;;;22.66;79.46
47274;BME280;33007;49.082;19.306;2022-08-19T07:51:08;95863.09;;;22.68;78.75
47274;BME280;33007;49.082;19.306;2022-08-19T07:53:35;95869.81;;;22.88;80.14
47274;BME280;33007;49.082;19.306;2022-08-19T07:56:03;95782.28;;;22.39;79.70
47274;BME280;33007;49.082;19.306;2022-08-19T07:58:35;95821.78;;;22.70;80.21
47274;BME280;33007;49.082;19.306;2022-08-19T08:01:01;95862.81;;;23.02;79.11
47274;BME280;33007;49.082;19.306;2022-08-19T08:03:28;95866.31;;;23.18;78.77
47274;BME280;33007;49.082;19.306;2022-08-19T08:06:13;95833.47;;;22.99;78.66
47274;BME280;33007;49.082;19.306;2022-08-19T08:08:57;95868.91;;;23.31;79.30
47274;BME280;33007;49.082;19.306;2022-08-19T08:14:18;95865.75;;;23.42;79.58
47274;BME280;33007;49.082;19.306;2022-08-19T08:16:44;95809.09;;;23.20;77.53
47274;BME280;33007;49.082;19.306;2022-08-19T08:19:11;95865.75;;;23.65;76.99
47274;BME280;33007;49.082;19.306;2022-08-19T08:21:40;95807.78;;;23.37;74.19
47274;BME280;33007;49.082;19.306;2022-08-19T08:24:05;95786.75;;;23.34;74.86
47274;BME280;33007;49.082;19.306;2022-08-19T08:26:31;95812.72;;;23.69;72.31
47274;BME280;33007;49.082;19.306;2022-08-19T08:28:57;95797.75;;;23.72;72.07
47274;BME280;33007;49.082;19.306;2022-08-19T08:31:22;95803.56;;;23.91;69.49
47274;BME280;33007;49.082;19.306;2022-08-19T08:33:49;95850.19;;;24.41;70.13
47274;BME280;33007;49.082;19.306;2022-08-19T08:36:15;95815.41;;;24.40;67.95
47274;BME280;33007;49.082;19.306;2022-08-19T08:38:42;95839.97;;;24.76;68.82
47274;BME280;33007;49.082;19.306;2022-08-19T08:44:51;95828.31;;;24.77;67.52
47274;BME280;33007;49.082;19.306;2022-08-19T08:47:22;95790.97;;;24.71;68.38
47274;BME280;33007;49.082;19.306;2022-08-19T08:50:01;95784.13;;;24.72;68.53
47274;BME280;33007;49.082;19.306;2022-08-19T08:52:31;95784.22;;;24.81;67.28
47274;BME280;33007;49.082;19.306;2022-08-19T08:55:12;95822.19;;;25.04;65.85
47274;BME280;33007;49.082;19.306;2022-08-19T09:02:49;95758.69;;;24.83;63.31
47274;BME280;33007;49.082;19.306;2022-08-19T09:05:14;95773.69;;;25.05;60.78
47274;BME280;33007;49.082;19.306;2022-08-19T09:08:08;95836.78;;;25.54;60.13
47274;BME280;33007;49.082;19.306;2022-08-19T09:13:42;95801.94;;;25.36;61.54
47274;BME280;33007;49.082;19.306;2022-08-19T09:16:21;95802.25;;;25.40;62.06
47274;BME280;33007;49.082;19.306;2022-08-19T09:18:51;95842.03;;;25.68;65.80
47274;BME280;33007;49.082;19.306;2022-08-19T09:21:21;95819.22;;;25.52;63.63
47274;BME280;33007;49.082;19.306;2022-08-19T09:23:51;95842.19;;;25.70;66.58
47274;BME280;33007;49.082;19.306;2022-08-19T09:26:18;95808.47;;;25.48;68.38
47274;BME280;33007;49.082;19.306;2022-08-19T09:28:47;95837.34;;;25.70;61.78
47274;BME280;33007;49.082;19.306;2022-08-19T09:31:21;95845.69;;;25.70;62.75
47274;BME280;33007;49.082;19.306;2022-08-19T09:33:47;95847.53;;;25.75;61.55
47274;BME280;33007;49.082;19.306;2022-08-19T09:36:15;95792.22;;;25.45;61.45
47274;BME280;33007;49.082;19.306;2022-08-19T09:38:41;95824.75;;;25.69;62.05
47274;BME280;33007;49.082;19.306;2022-08-19T09:41:10;95790.50;;;25.67;62.33
47274;BME280;33007;49.082;19.306;2022-08-19T09:43:37;95800.34;;;25.85;60.57
47274;BME280;33007;49.082;19.306;2022-08-19T09:46:04;95836.75;;;26.24;59.49
47274;BME280;33007;49.082;19.306;2022-08-19T09:48:32;95797.44;;;26.10;59.26
47274;BME280;33007;49.082;19.306;2022-08-19T09:51:11;95791.66;;;26.25;58.55
47274;BME280;33007;49.082;19.306;2022-08-19T09:53:40;95789.53;;;26.33;56.28
47274;BME280;33007;49.082;19.306;2022-08-19T09:56:05;95823.72;;;26.71;55.47
47274;BME280;33007;49.082;19.306;2022-08-19T09:58:32;95790.41;;;26.53;55.73
47274;BME280;33007;49.082;19.306;2022-08-19T10:00:58;95823.91;;;26.82;55.55
47274;BME280;33007;49.082;19.306;2022-08-19T10:03:25;95790.00;;;26.67;54.32
47274;BME280;33007;49.082;19.306;2022-08-19T10:05:52;95730.44;;;26.43;55.51
47274;BME280;33007;49.082;19.306;2022-08-19T10:08:24;95816.72;;;27.16;54.33
47274;BME280;33007;49.082;19.306;2022-08-19T10:10:54;95762.13;;;27.03;53.00
47274;BME280;33007;49.082;19.306;2022-08-19T10:13:22;95751.47;;;27.09;52.06
47274;BME280;33007;49.082;19.306;2022-08-19T10:15:54;95784.94;;;27.48;52.79
47274;BME280;33007;49.082;19.306;2022-08-19T10:18:22;95746.81;;;27.31;50.84
47274;BME280;33007;49.082;19.306;2022-08-19T10:20:48;95725.72;;;27.38;51.21
47274;BME280;33007;49.082;19.306;2022-08-19T10:23:16;95758.44;;;27.86;51.18
47274;BME280;33007;49.082;19.306;2022-08-19T10:25:42;95729.06;;;27.85;47.07
47274;BME280;33007;49.082;19.306;2022-08-19T10:28:08;95694.44;;;27.78;49.35
47274;BME280;33007;49.082;19.306;2022-08-19T10:30:38;95717.91;;;27.94;50.94
47274;BME280;33007;49.082;19.306;2022-08-19T10:33:04;95723.25;;;28.22;48.55
47274;BME280;33007;49.082;19.306;2022-08-19T10:35:30;95715.59;;;28.32;48.05
47274;BME280;33007;49.082;19.306;2022-08-19T10:37:56;95688.44;;;28.23;49.18
47274;BME280;33007;49.082;19.306;2022-08-19T10:40:26;95753.94;;;28.82;46.51
47274;BME280;33007;49.082;19.306;2022-08-19T10:42:53;95708.31;;;28.58;43.94
47274;BME280;33007;49.082;19.306;2022-08-19T10:45:19;95713.16;;;28.88;45.22
47274;BME280;33007;49.082;19.306;2022-08-19T10:47:47;95690.22;;;28.90;45.06
47274;BME280;33007;49.082;19.306;2022-08-19T10:50:13;95715.94;;;29.19;45.12
47274;BME280;33007;49.082;19.306;2022-08-19T10:52:57;95741.16;;;29.53;43.93
47274;BME280;33007;49.082;19.306;2022-08-19T10:55:24;95709.00;;;29.42;43.61
47274;BME280;33007;49.082;19.306;2022-08-19T10:58:12;95712.44;;;29.52;44.02
47274;BME280;33007;49.082;19.306;2022-08-19T11:00:38;95724.97;;;29.72;43.70
47274;BME280;33007;49.082;19.306;2022-08-19T11:03:05;95706.94;;;29.64;42.67
47274;BME280;33007;49.082;19.306;2022-08-19T11:05:31;95689.50;;;29.54;43.31
47274;BME280;33007;49.082;19.306;2022-08-19T11:07:56;95760.03;;;29.85;45.68
47274;BME280;33007;49.082;19.306;2022-08-19T11:10:22;95687.72;;;29.37;44.93
47274;BME280;33007;49.082;19.306;2022-08-19T11:12:49;95684.31;;;29.38;44.44
47274;BME280;33007;49.082;19.306;2022-08-19T11:15:18;95707.13;;;29.56;43.78
47274;BME280;33007;49.082;19.306;2022-08-19T11:17:43;95723.66;;;29.85;42.58
47274;BME280;33007;49.082;19.306;2022-08-19T11:20:11;95731.94;;;30.28;42.13
47274;BME280;33007;49.082;19.306;2022-08-19T11:22:37;95739.63;;;30.51;44.10
47274;BME280;33007;49.082;19.306;2022-08-19T11:25:03;95678.75;;;30.28;42.54
47274;BME280;33007;49.082;19.306;2022-08-19T11:27:29;95675.72;;;30.36;41.59
47274;BME280;33007;49.082;19.306;2022-08-19T11:29:55;95723.47;;;30.85;40.79
47274;BME280;33007;49.082;19.306;2022-08-19T11:32:21;95692.16;;;30.76;41.33
47274;BME280;33007;49.082;19.306;2022-08-19T11:34:46;95676.19;;;30.91;41.66
47274;BME280;33007;49.082;19.306;2022-08-19T11:37:12;95664.66;;;30.85;41.25
47274;BME280;33007;49.082;19.306;2022-08-19T11:39:38;95622.97;;;30.67;39.79
47274;BME280;33007;49.082;19.306;2022-08-19T11:42:05;95700.72;;;31.39;41.47
47274;BME280;33007;49.082;19.306;2022-08-19T11:44:49;95667.84;;;31.16;40.82
47274;BME280;33007;49.082;19.306;2022-08-19T11:47:15;95668.78;;;31.21;40.91
47274;BME280;33007;49.082;19.306;2022-08-19T11:49:41;95668.44;;;31.26;39.29
47274;BME280;33007;49.082;19.306;2022-08-19T11:52:07;95690.03;;;31.61;39.09
47274;BME280;33007;49.082;19.306;2022-08-19T11:54:33;95668.88;;;31.72;37.00
47274;BME280;33007;49.082;19.306;2022-08-19T11:56:58;95665.34;;;31.71;36.98
47274;BME280;33007;49.082;19.306;2022-08-19T11:59:24;95671.00;;;31.85;35.59
47274;BME280;33007;49.082;19.306;2022-08-19T12:01:51;95657.03;;;31.99;36.81
47274;BME280;33007;49.082;19.306;2022-08-19T12:04:17;95683.59;;;32.23;36.23
47274;BME280;33007;49.082;19.306;2022-08-19T12:06:42;95647.78;;;32.10;35.14
47274;BME280;33007;49.082;19.306;2022-08-19T12:09:09;95688.34;;;32.46;35.06
47274;BME280;33007;49.082;19.306;2022-08-19T12:11:35;95655.72;;;32.27;34.18
47274;BME280;33007;49.082;19.306;2022-08-19T12:14:02;95689.78;;;32.47;38.14
47274;BME280;33007;49.082;19.306;2022-08-19T12:16:29;95622.34;;;32.20;37.88
47274;BME280;33007;49.082;19.306;2022-08-19T12:18:57;95686.06;;;32.84;36.23
47274;BME280;33007;49.082;19.306;2022-08-19T12:21:26;95682.13;;;32.89;34.30
47274;BME280;33007;49.082;19.306;2022-08-19T12:23:54;95680.66;;;33.02;35.29
47274;BME280;33007;49.082;19.306;2022-08-19T12:26:20;95667.09;;;33.12;36.34
47274;BME280;33007;49.082;19.306;2022-08-19T12:28:46;95610.91;;;32.84;35.07
47274;BME280;33007;49.082;19.306;2022-08-19T12:31:12;95679.03;;;33.40;34.36
47274;BME280;33007;49.082;19.306;2022-08-19T12:33:38;95682.31;;;33.64;35.86
47274;BME280;33007;49.082;19.306;2022-08-19T12:36:07;95626.84;;;33.37;35.26
47274;BME280;33007;49.082;19.306;2022-08-19T12:38:33;95605.00;;;33.22;34.44
47274;BME280;33007;49.082;19.306;2022-08-19T12:41:03;95624.91;;;33.26;36.81
47274;BME280;33007;49.082;19.306;2022-08-19T12:43:31;95606.00;;;32.85;36.86
47274;BME280;33007;49.082;19.306;2022-08-19T12:45:57;95647.22;;;32.80;37.78
47274;BME280;33007;49.082;19.306;2022-08-19T12:48:22;95615.16;;;32.17;38.21
47274;BME280;33007;49.082;19.306;2022-08-19T12:50:48;95642.19;;;32.10;38.18
47274;BME280;33007;49.082;19.306;2022-08-19T12:53:14;95621.97;;;31.86;37.44
47274;BME280;33007;49.082;19.306;2022-08-19T12:55:40;95582.38;;;31.54;40.83
47274;BME280;33007;49.082;19.306;2022-08-19T12:58:07;95628.00;;;31.80;38.85
47274;BME280;33007;49.082;19.306;2022-08-19T13:00:33;95602.75;;;31.55;39.77
47274;BME280;33007;49.082;19.306;2022-08-19T13:02:59;95665.16;;;32.06;40.52
47274;BME280;33007;49.082;19.306;2022-08-19T13:05:28;95617.81;;;31.62;40.38
47274;BME280;33007;49.082;19.306;2022-08-19T13:07:55;95623.66;;;31.66;40.32
47274;BME280;33007;49.082;19.306;2022-08-19T13:10:22;95583.97;;;31.71;42.54